sensor_id;sensor_type;location;lat;lon;timestamp;pressure;altitude;pressure_sealevel;temperature;humidity
9764;BME280;4921;43.214;27.936;2023-04-01T00:00:35;100234.41;;;13.06;100.00
9764;BME280;4921;43.214;27.936;2023-04-01T00:03:02;100232.47;;;13.08;100.00
9764;BME280;4921;43.214;27.936;2023-04-01T00:05:29;100232.47;;;13.08;100.00
9764;BME280;4921;43.214;27.936;2023-04-01T00:07:56;100223.53;;;13.09;100.00
9764;BME280;4921;43.214;27.936;2023-04-01T00:10:23;100226.19;;;13.09;100.00
9764;BME280;4921;43.214;27.936;2023-04-01T00:12:50;100222.59;;;13.10;100.00
9764;BME280;4921;43.214;27.936;2023-04-01T00:15:18;100219.94;;;13.10;100.00
9764;BME280;4921;43.214;27.936;2023-04-01T00:17:46;100220.78;;;13.11;100.00
9764;BME280;4921;43.214;27.936;2023-04-01T00:20:14;100222.44;;;13.12;100.00
9764;BME280;4921;43.214;27.936;2023-04-01T00:22:41;100222.31;;;13.13;100.00
9764;BME280;4921;43.214;27.936;2023-04-01T00:25:08;100216.19;;;13.13;100.00
9764;BME280;4921;43.214;27.936;2023-04-01T00:27:36;100214.38;;;13.13;100.00
9764;BME280;4921;43.214;27.936;2023-04-01T00:30:04;100215.06;;;13.15;100.00
9764;BME280;4921;43.214;27.936;2023-04-01T00:32:32;100218.66;;;13.14;100.00
9764;BME280;4921;43.214;27.936;2023-04-01T00:34:59;100215.19;;;13.14;100.00
9764;BME280;4921;43.214;27.936;2023-04-01T00:37:27;100205.47;;;13.14;100.00
9764;BME280;4921;43.214;27.936;2023-04-01T00:39:54;100204.63;;;13.14;100.00
9764;BME280;4921;43.214;27.936;2023-04-01T00:42:21;100203.50;;;13.16;100.00
9764;BME280;4921;43.214;27.936;2023-04-01T00:44:50;100199.91;;;13.17;100.00
9764;BME280;4921;43.214;27.936;2023-04-01T00:47:18;100198.63;;;13.21;100.00
9764;BME280;4921;43.214;27.936;2023-04-01T00:49:49;100191.38;;;13.23;100.00
9764;BME280;4921;43.214;27.936;2023-04-01T00:52:19;100184.28;;;13.24;100.00
9764;BME280;4921;43.214;27.936;2023-04-01T00:54:49;100187.63;;;13.26;100.00
9764;BME280;4921;43.214;27.936;2023-04-01T00:57:21;100184.97;;;13.26;100.00
9764;BME280;4921;43.214;27.936;2023-04-01T00:59:52;100188.13;;;13.29;100.00
9764;BME280;4921;43.214;27.936;2023-04-01T01:02:21;100193.41;;;13.29;100.00
9764;BME280;4921;43.214;27.936;2023-04-01T01:04:49;100198.47;;;13.23;100.00
9764;BME280;4921;43.214;27.936;2023-04-01T01:07:24;100203.75;;;12.95;100.00
9764;BME280;4921;43.214;27.936;2023-04-01T01:10:01;100203.09;;;12.84;100.00
9764;BME280;4921;43.214;27.936;2023-04-01T01:12:34;100210.34;;;12.82;100.00
9764;BME280;4921;43.214;27.936;2023-04-01T01:15:10;100199.97;;;12.71;100.00
9764;BME280;4921;43.214;27.936;2023-04-01T01:17:50;100209.84;;;12.69;100.00
9764;BME280;4921;43.214;27.936;2023-04-01T01:26:43;100210.69;;;12.23;100.00
9764;BME280;4921;43.214;27.936;2023-04-01T01:29:32;100197.53;;;12.04;100.00
9764;BME280;4921;43.214;27.936;2023-04-01T01:32:07;100193.13;;;11.95;100.00
9764;BME280;4921;43.214;27.936;2023-04-01T01:34:40;100191.47;;;11.94;100.00
9764;BME280;4921;43.214;27.936;2023-04-01T01:37:17;100186.34;;;11.92;100.00
9764;BME280;4921;43.214;27.936;2023-04-01T01:39:54;100181.75;;;11.94;100.00
9764;BME280;4921;43.214;27.936;2023-04-01T01:42:24;100182.03;;;11.82;100.00
9764;BME280;4921;43.214;27.936;2023-04-01T01:44:54;100183.03;;;11.81;100.00
9764;BME280;4921;43.214;27.936;2023-04-01T01:47:23;100195.19;;;11.82;100.00
9764;BME280;4921;43.214;27.936;2023-04-01T01:49:52;100177.91;;;11.79;100.00
9764;BME280;4921;43.214;27.936;2023-04-01T01:52:21;100182.88;;;11.82;100.00
9764;BME280;4921;43.214;27.936;2023-04-01T01:54:49;100188.84;;;11.84;100.00
9764;BME280;4921;43.214;27.936;2023-04-01T01:57:17;100185.94;;;11.78;100.00
9764;BME280;4921;43.214;27.936;2023-04-01T01:59:47;100200.06;;;11.67;100.00
9764;BME280;4921;43.214;27.936;2023-04-01T02:02:15;100194.91;;;11.66;100.00
9764;BME280;4921;43.214;27.936;2023-04-01T02:04:45;100186.72;;;11.49;100.00
9764;BME280;4921;43.214;27.936;2023-04-01T02:07:17;100184.81;;;11.61;100.00
9764;BME280;4921;43.214;27.936;2023-04-01T02:09:48;100178.56;;;11.62;100.00
9764;BME280;4921;43.214;27.936;2023-04-01T02:12:16;100182.72;;;11.55;100.00
9764;BME280;4921;43.214;27.936;2023-04-01T02:14:47;100174.97;;;11.54;100.00
9764;BME280;4921;43.214;27.936;2023-04-01T02:17:18;100170.25;;;11.57;100.00
9764;BME280;4921;43.214;27.936;2023-04-01T02:19:48;100162.63;;;11.54;100.00
9764;BME280;4921;43.214;27.936;2023-04-01T02:22:18;100156.53;;;11.54;100.00
9764;BME280;4921;43.214;27.936;2023-04-01T02:24:49;100135.63;;;11.33;100.00
9764;BME280;4921;43.214;27.936;2023-04-01T02:27:17;100153.91;;;11.44;100.00
9764;BME280;4921;43.214;27.936;2023-04-01T02:29:44;100146.28;;;11.41;100.00
9764;BME280;4921;43.214;27.936;2023-04-01T02:32:12;100151.00;;;11.47;100.00
9764;BME280;4921;43.214;27.936;2023-04-01T02:34:41;100162.34;;;11.57;100.00
9764;BME280;4921;43.214;27.936;2023-04-01T02:37:08;100148.34;;;11.57;100.00
9764;BME280;4921;43.214;27.936;2023-04-01T02:39:36;100135.88;;;11.59;100.00
9764;BME280;4921;43.214;27.936;2023-04-01T02:42:04;100146.00;;;11.54;100.00
9764;BME280;4921;43.214;27.936;2023-04-01T02:44:32;100151.13;;;11.55;100.00
9764;BME280;4921;43.214;27.936;2023-04-01T02:46:59;100140.88;;;11.62;100.00
9764;BME280;4921;43.214;27.936;2023-04-01T02:49:26;100131.28;;;11.61;100.00
9764;BME280;4921;43.214;27.936;2023-04-01T02:51:53;100134.50;;;11.55;100.00
9764;BME280;4921;43.214;27.936;2023-04-01T02:54:20;100133.13;;;11.60;100.00
9764;BME280;4921;43.214;27.936;2023-04-01T02:56:47;100126.59;;;11.55;100.00
9764;BME280;4921;43.214;27.936;2023-04-01T02:59:16;100116.91;;;11.55;100.00
9764;BME280;4921;43.214;27.936;2023-04-01T03:01:43;100108.47;;;11.42;100.00
9764;BME280;4921;43.214;27.936;2023-04-01T03:04:10;100108.59;;;11.40;100.00
9764;BME280;4921;43.214;27.936;2023-04-01T03:06:37;100111.63;;;11.45;100.00
9764;BME280;4921;43.214;27.936;2023-04-01T03:09:04;100105.41;;;11.46;100.00
9764;BME280;4921;43.214;27.936;2023-04-01T03:11:31;100103.59;;;11.28;100.00
9764;BME280;4921;43.214;27.936;2023-04-01T03:13:58;100104.72;;;11.25;100.00
9764;BME280;4921;43.214;27.936;2023-04-01T03:16:26;100106.22;;;11.28;100.00
9764;BME280;4921;43.214;27.936;2023-04-01T03:18:53;100101.25;;;11.25;100.00
9764;BME280;4921;43.214;27.936;2023-04-01T03:21:23;100105.28;;;11.29;100.00
9764;BME280;4921;43.214;27.936;2023-04-01T03:23:51;100085.06;;;11.20;100.00
9764;BME280;4921;43.214;27.936;2023-04-01T03:26:18;100094.91;;;11.27;100.00
9764;BME280;4921;43.214;27.936;2023-04-01T03:28:45;100088.94;;;11.25;100.00
9764;BME280;4921;43.214;27.936;2023-04-01T03:31:13;100075.78;;;11.16;100.00
9764;BME280;4921;43.214;27.936;2023-04-01T03:33:42;100081.03;;;11.25;100.00
9764;BME280;4921;43.214;27.936;2023-04-01T03:36:10;100088.66;;;11.19;100.00
9764;BME280;4921;43.214;27.936;2023-04-01T03:38:38;100088.66;;;11.09;100.00
9764;BME280;4921;43.214;27.936;2023-04-01T03:41:05;100088.66;;;11.09;100.00
9764;BME280;4921;43.214;27.936;2023-04-01T03:43:32;100092.81;;;11.12;100.00
9764;BME280;4921;43.214;27.936;2023-04-01T03:46:00;100100.97;;;11.09;100.00
9764;BME280;4921;43.214;27.936;2023-04-01T03:48:27;100105.44;;;11.08;100.00
9764;BME280;4921;43.214;27.936;2023-04-01T03:50:55;100103.31;;;10.83;100.00
9764;BME280;4921;43.214;27.936;2023-04-01T03:53:22;100103.00;;;10.67;100.00
9764;BME280;4921;43.214;27.936;2023-04-01T03:55:49;100091.25;;;10.71;100.00
9764;BME280;4921;43.214;27.936;2023-04-01T03:58:17;100111.19;;;10.73;100.00
9764;BME280;4921;43.214;27.936;2023-04-01T04:00:44;100114.03;;;10.51;100.00
9764;BME280;4921;43.214;27.936;2023-04-01T04:03:12;100114.28;;;10.39;100.00
9764;BME280;4921;43.214;27.936;2023-04-01T04:05:46;100128.81;;;10.52;100.00
9764;BME280;4921;43.214;27.936;2023-04-01T04:08:15;100125.25;;;10.53;100.00
9764;BME280;4921;43.214;27.936;2023-04-01T04:10:42;100117.66;;;10.60;100.00
9764;BME280;4921;43.214;27.936;2023-04-01T04:13:10;100109.38;;;10.74;100.00
9764;BME280;4921;43.214;27.936;2023-04-01T04:15:38;100109.09;;;10.77;100.00
9764;BME280;4921;43.214;27.936;2023-04-01T04:18:05;100104.41;;;10.81;100.00
9764;BME280;4921;43.214;27.936;2023-04-01T04:20:32;100096.69;;;10.89;100.00
9764;BME280;4921;43.214;27.936;2023-04-01T04:23:00;100095.16;;;10.96;100.00
9764;BME280;4921;43.214;27.936;2023-04-01T04:25:28;100096.66;;;10.98;100.00
9764;BME280;4921;43.214;27.936;2023-04-01T04:27:55;100097.38;;;11.00;100.00
9764;BME280;4921;43.214;27.936;2023-04-01T04:30:22;100096.13;;;11.04;100.00
9764;BME280;4921;43.214;27.936;2023-04-01T04:32:49;100107.06;;;11.09;100.00
9764;BME280;4921;43.214;27.936;2023-04-01T04:35:16;100094.59;;;11.11;100.00
9764;BME280;4921;43.214;27.936;2023-04-01T04:37:43;100090.03;;;11.23;100.00
9764;BME280;4921;43.214;27.936;2023-04-01T04:40:11;100095.16;;;11.34;100.00
9764;BME280;4921;43.214;27.936;2023-04-01T04:42:39;100088.63;;;11.47;100.00
9764;BME280;4921;43.214;27.936;2023-04-01T04:45:06;100086.28;;;11.44;100.00
9764;BME280;4921;43.214;27.936;2023-04-01T04:47:33;100094.47;;;11.51;100.00
9764;BME280;4921;43.214;27.936;2023-04-01T04:50:00;100083.34;;;11.47;100.00
9764;BME280;4921;43.214;27.936;2023-04-01T04:52:27;100081.84;;;11.55;100.00
9764;BME280;4921;43.214;27.936;2023-04-01T04:54:54;100081.13;;;11.62;100.00
9764;BME280;4921;43.214;27.936;2023-04-01T04:57:21;100078.06;;;11.76;100.00
9764;BME280;4921;43.214;27.936;2023-04-01T04:59:50;100084.81;;;11.88;100.00
9764;BME280;4921;43.214;27.936;2023-04-01T05:02:17;100095.50;;;11.96;100.00
9764;BME280;4921;43.214;27.936;2023-04-01T05:04:44;100100.13;;;12.12;100.00
9764;BME280;4921;43.214;27.936;2023-04-01T05:07:11;100099.16;;;12.22;100.00
9764;BME280;4921;43.214;27.936;2023-04-01T05:09:38;100086.91;;;12.31;100.00
9764;BME280;4921;43.214;27.936;2023-04-01T05:12:05;100091.59;;;12.37;100.00
9764;BME280;4921;43.214;27.936;2023-04-01T05:14:33;100081.97;;;12.46;100.00
9764;BME280;4921;43.214;27.936;2023-04-01T05:17:01;100075.25;;;12.51;100.00
9764;BME280;4921;43.214;27.936;2023-04-01T05:19:28;100080.69;;;12.50;100.00
9764;BME280;4921;43.214;27.936;2023-04-01T05:21:55;100073.84;;;12.57;100.00
9764;BME280;4921;43.214;27.936;2023-04-01T05:24:22;100067.31;;;12.61;100.00
9764;BME280;4921;43.214;27.936;2023-04-01T05:26:49;100067.81;;;12.64;100.00
9764;BME280;4921;43.214;27.936;2023-04-01T05:29:16;100055.53;;;12.55;100.00
9764;BME280;4921;43.214;27.936;2023-04-01T05:31:43;100053.56;;;12.57;100.00
9764;BME280;4921;43.214;27.936;2023-04-01T05:34:11;100051.88;;;12.66;100.00
9764;BME280;4921;43.214;27.936;2023-04-01T05:36:39;100057.91;;;12.76;100.00
9764;BME280;4921;43.214;27.936;2023-04-01T05:39:07;100053.31;;;12.78;100.00
9764;BME280;4921;43.214;27.936;2023-04-01T05:41:35;100049.22;;;12.83;100.00
9764;BME280;4921;43.214;27.936;2023-04-01T05:44:02;100045.47;;;12.86;100.00
9764;BME280;4921;43.214;27.936;2023-04-01T05:46:30;100042.97;;;12.84;100.00
9764;BME280;4921;43.214;27.936;2023-04-01T05:48:57;100028.22;;;12.91;100.00
9764;BME280;4921;43.214;27.936;2023-04-01T05:51:25;100041.50;;;13.17;100.00
9764;BME280;4921;43.214;27.936;2023-04-01T05:53:52;100028.84;;;13.29;100.00
9764;BME280;4921;43.214;27.936;2023-04-01T05:56:19;100033.44;;;13.44;100.00
9764;BME280;4921;43.214;27.936;2023-04-01T05:58:51;100025.31;;;13.63;100.00
9764;BME280;4921;43.214;27.936;2023-04-01T06:01:19;100027.72;;;13.83;100.00
9764;BME280;4921;43.214;27.936;2023-04-01T06:03:46;100025.00;;;14.00;100.00
9764;BME280;4921;43.214;27.936;2023-04-01T06:06:14;100024.72;;;14.11;100.00
9764;BME280;4921;43.214;27.936;2023-04-01T06:08:43;100017.22;;;14.32;100.00
9764;BME280;4921;43.214;27.936;2023-04-01T06:11:22;100011.00;;;14.49;100.00
9764;BME280;4921;43.214;27.936;2023-04-01T06:14:01;100009.91;;;14.68;100.00
9764;BME280;4921;43.214;27.936;2023-04-01T06:16:42;100013.97;;;14.46;100.00
9764;BME280;4921;43.214;27.936;2023-04-01T06:19:23;100017.44;;;14.47;100.00
9764;BME280;4921;43.214;27.936;2023-04-01T06:22:20;100020.78;;;14.49;100.00
9764;BME280;4921;43.214;27.936;2023-04-01T06:25:12;100014.19;;;14.61;100.00
9764;BME280;4921;43.214;27.936;2023-04-01T06:27:56;100009.56;;;14.71;100.00
9764;BME280;4921;43.214;27.936;2023-04-01T06:30:39;100010.75;;;14.85;100.00
9764;BME280;4921;43.214;27.936;2023-04-01T06:33:36;100006.75;;;14.73;100.00
9764;BME280;4921;43.214;27.936;2023-04-01T06:36:31;100010.88;;;14.59;100.00
9764;BME280;4921;43.214;27.936;2023-04-01T06:39:26;100011.34;;;14.46;100.00
9764;BME280;4921;43.214;27.936;2023-04-01T06:42:09;99998.78;;;14.48;100.00
9764;BME280;4921;43.214;27.936;2023-04-01T06:44:45;99997.41;;;14.36;100.00
9764;BME280;4921;43.214;27.936;2023-04-01T06:47:40;99994.09;;;14.34;100.00
9764;BME280;4921;43.214;27.936;2023-04-01T06:50:16;99992.78;;;14.38;100.00
9764;BME280;4921;43.214;27.936;2023-04-01T06:52:54;99990.94;;;14.31;100.00
9764;BME280;4921;43.214;27.936;2023-04-01T06:55:27;100001.81;;;14.28;100.00
9764;BME280;4921;43.214;27.936;2023-04-01T06:58:00;99993.59;;;14.31;100.00
9764;BME280;4921;43.214;27.936;2023-04-01T07:00:32;99989.66;;;14.43;100.00
9764;BME280;4921;43.214;27.936;2023-04-01T07:03:12;99992.00;;;14.54;100.00
9764;BME280;4921;43.214;27.936;2023-04-01T07:05:41;99998.56;;;14.34;100.00
9764;BME280;4921;43.214;27.936;2023-04-01T07:08:11;100014.63;;;14.40;100.00
9764;BME280;4921;43.214;27.936;2023-04-01T07:10:45;100009.91;;;14.26;100.00
9764;BME280;4921;43.214;27.936;2023-04-01T07:13:17;100005.50;;;14.35;100.00
9764;BME280;4921;43.214;27.936;2023-04-01T07:15:55;100009.53;;;14.55;100.00
9764;BME280;4921;43.214;27.936;2023-04-01T07:18:32;100002.09;;;14.50;100.00
9764;BME280;4921;43.214;27.936;2023-04-01T07:21:01;99999.28;;;14.52;100.00
9764;BME280;4921;43.214;27.936;2023-04-01T07:23:32;99998.25;;;14.45;100.00
9764;BME280;4921;43.214;27.936;2023-04-01T07:26:08;99993.81;;;14.53;100.00
9764;BME280;4921;43.214;27.936;2023-04-01T07:28:40;99988.38;;;14.63;100.00
9764;BME280;4921;43.214;27.936;2023-04-01T07:31:18;99991.38;;;14.68;100.00
9764;BME280;4921;43.214;27.936;2023-04-01T07:33:54;99982.94;;;14.73;100.00
9764;BME280;4921;43.214;27.936;2023-04-01T07:36:26;99977.78;;;14.63;100.00
9764;BME280;4921;43.214;27.936;2023-04-01T07:39:04;99978.28;;;14.50;100.00
9764;BME280;4921;43.214;27.936;2023-04-01T07:41:42;99974.00;;;14.66;100.00
9764;BME280;4921;43.214;27.936;2023-04-01T07:44:24;99984.75;;;14.80;100.00
9764;BME280;4921;43.214;27.936;2023-04-01T07:47:21;99970.22;;;15.00;100.00
9764;BME280;4921;43.214;27.936;2023-04-01T07:50:05;99966.72;;;15.00;100.00
9764;BME280;4921;43.214;27.936;2023-04-01T07:52:43;99965.59;;;14.94;100.00
9764;BME280;4921;43.214;27.936;2023-04-01T07:55:15;99960.94;;;14.96;100.00
9764;BME280;4921;43.214;27.936;2023-04-01T07:57:49;99961.28;;;15.09;100.00
9764;BME280;4921;43.214;27.936;2023-04-01T08:00:22;99960.09;;;15.12;100.00
9764;BME280;4921;43.214;27.936;2023-04-01T08:03:08;99955.16;;;15.01;100.00
9764;BME280;4921;43.214;27.936;2023-04-01T08:05:46;99943.06;;;14.98;100.00
9764;BME280;4921;43.214;27.936;2023-04-01T08:08:19;99943.38;;;15.03;100.00
9764;BME280;4921;43.214;27.936;2023-04-01T08:10:56;99938.56;;;15.15;100.00
9764;BME280;4921;43.214;27.936;2023-04-01T08:13:31;99929.09;;;15.37;100.00
9764;BME280;4921;43.214;27.936;2023-04-01T08:16:08;99929.09;;;15.45;100.00
9764;BME280;4921;43.214;27.936;2023-04-01T08:18:43;99929.28;;;15.43;100.00
9764;BME280;4921;43.214;27.936;2023-04-01T08:21:16;99922.63;;;15.47;100.00
9764;BME280;4921;43.214;27.936;2023-04-01T08:23:48;99920.09;;;15.62;100.00
9764;BME280;4921;43.214;27.936;2023-04-01T08:26:23;99925.50;;;15.76;100.00
9764;BME280;4921;43.214;27.936;2023-04-01T08:28:55;99914.06;;;15.84;100.00
9764;BME280;4921;43.214;27.936;2023-04-01T08:31:30;99915.59;;;15.78;100.00
9764;BME280;4921;43.214;27.936;2023-04-01T08:34:00;99916.09;;;15.66;100.00
9764;BME280;4921;43.214;27.936;2023-04-01T08:36:31;99903.16;;;15.71;100.00
9764;BME280;4921;43.214;27.936;2023-04-01T08:39:03;99909.22;;;15.57;100.00
9764;BME280;4921;43.214;27.936;2023-04-01T08:41:44;99920.16;;;15.29;100.00
9764;BME280;4921;43.214;27.936;2023-04-01T08:44:49;99913.88;;;15.22;100.00
9764;BME280;4921;43.214;27.936;2023-04-01T08:47:52;99903.44;;;15.29;100.00
9764;BME280;4921;43.214;27.936;2023-04-01T08:53:50;99903.44;;;15.37;100.00
9764;BME280;4921;43.214;27.936;2023-04-01T08:56:26;99904.94;;;15.40;100.00
9764;BME280;4921;43.214;27.936;2023-04-01T08:59:21;99895.44;;;15.53;100.00
9764;BME280;4921;43.214;27.936;2023-04-01T09:02:18;99900.69;;;15.69;100.00
9764;BME280;4921;43.214;27.936;2023-04-01T09:05:15;99901.78;;;15.83;100.00
9764;BME280;4921;43.214;27.936;2023-04-01T09:07:57;99888.13;;;15.94;100.00
9764;BME280;4921;43.214;27.936;2023-04-01T09:10:59;99887.81;;;15.97;100.00
9764;BME280;4921;43.214;27.936;2023-04-01T09:17:01;99873.13;;;16.09;100.00
9764;BME280;4921;43.214;27.936;2023-04-01T09:19:45;99875.50;;;16.27;100.00
9764;BME280;4921;43.214;27.936;2023-04-01T09:22:24;99872.03;;;16.03;100.00
9764;BME280;4921;43.214;27.936;2023-04-01T09:27:57;99877.19;;;15.66;100.00
9764;BME280;4921;43.214;27.936;2023-04-01T09:33:42;99866.94;;;15.63;100.00
9764;BME280;4921;43.214;27.936;2023-04-01T09:36:22;99860.19;;;15.83;100.00
9764;BME280;4921;43.214;27.936;2023-04-01T09:39:08;99859.22;;;15.84;100.00
9764;BME280;4921;43.214;27.936;2023-04-01T09:41:41;99859.94;;;15.70;100.00
9764;BME280;4921;43.214;27.936;2023-04-01T09:44:17;99847.63;;;15.77;100.00
9764;BME280;4921;43.214;27.936;2023-04-01T09:46:59;99845.88;;;15.70;100.00
9764;BME280;4921;43.214;27.936;2023-04-01T09:49:43;99842.13;;;15.56;100.00
9764;BME280;4921;43.214;27.936;2023-04-01T09:52:24;99837.53;;;15.34;100.00
9764;BME280;4921;43.214;27.936;2023-04-01T09:55:14;99828.84;;;15.17;100.00
9764;BME280;4921;43.214;27.936;2023-04-01T09:58:13;99822.38;;;15.20;100.00
9764;BME280;4921;43.214;27.936;2023-04-01T10:07:33;99794.03;;;15.59;100.00
9764;BME280;4921;43.214;27.936;2023-04-01T10:10:28;99776.69;;;15.57;100.00
9764;BME280;4921;43.214;27.936;2023-04-01T10:13:24;99780.41;;;15.32;100.00
9764;BME280;4921;43.214;27.936;2023-04-01T10:16:07;99787.47;;;15.08;100.00
9764;BME280;4921;43.214;27.936;2023-04-01T10:19:12;99781.88;;;14.95;100.00
9764;BME280;4921;43.214;27.936;2023-04-01T10:22:04;99773.13;;;14.95;100.00
9764;BME280;4921;43.214;27.936;2023-04-01T10:37:03;99767.41;;;15.14;100.00
9764;BME280;4921;43.214;27.936;2023-04-01T10:39:37;99770.19;;;15.28;100.00
9764;BME280;4921;43.214;27.936;2023-04-01T10:45:46;99756.53;;;15.48;100.00
9764;BME280;4921;43.214;27.936;2023-04-01T10:48:27;99757.50;;;15.55;100.00
9764;BME280;4921;43.214;27.936;2023-04-01T10:54:19;99758.94;;;15.57;100.00
9764;BME280;4921;43.214;27.936;2023-04-01T10:56:55;99746.66;;;15.64;100.00
9764;BME280;4921;43.214;27.936;2023-04-01T10:59:46;99738.88;;;15.63;100.00
9764;BME280;4921;43.214;27.936;2023-04-01T11:21:31;99710.44;;;15.57;100.00
9764;BME280;4921;43.214;27.936;2023-04-01T11:24:20;99712.31;;;15.48;100.00
9764;BME280;4921;43.214;27.936;2023-04-01T11:26:59;99709.38;;;15.66;100.00
9764;BME280;4921;43.214;27.936;2023-04-01T11:30:02;99708.38;;;15.67;100.00
9764;BME280;4921;43.214;27.936;2023-04-01T11:32:50;99705.09;;;15.65;100.00
9764;BME280;4921;43.214;27.936;2023-04-01T11:35:38;99701.47;;;15.58;100.00
9764;BME280;4921;43.214;27.936;2023-04-01T11:38:24;99692.13;;;15.70;100.00
9764;BME280;4921;43.214;27.936;2023-04-01T11:43:29;99706.00;;;15.94;100.00
9764;BME280;4921;43.214;27.936;2023-04-01T11:46:05;99696.88;;;15.97;100.00
9764;BME280;4921;43.214;27.936;2023-04-01T11:51:45;99693.50;;;16.03;100.00
9764;BME280;4921;43.214;27.936;2023-04-01T11:54:28;99697.28;;;16.23;100.00
9764;BME280;4921;43.214;27.936;2023-04-01T11:57:13;99675.19;;;16.45;100.00
9764;BME280;4921;43.214;27.936;2023-04-01T12:02:25;99670.53;;;16.62;100.00
9764;BME280;4921;43.214;27.936;2023-04-01T12:05:12;99667.06;;;16.61;100.00
9764;BME280;4921;43.214;27.936;2023-04-01T12:08:01;99657.88;;;16.78;100.00
9764;BME280;4921;43.214;27.936;2023-04-01T12:10:38;99673.63;;;16.80;100.00
9764;BME280;4921;43.214;27.936;2023-04-01T12:13:15;99665.94;;;16.85;100.00
9764;BME280;4921;43.214;27.936;2023-04-01T12:16:04;99665.25;;;16.98;100.00
9764;BME280;4921;43.214;27.936;2023-04-01T12:18:38;99658.50;;;16.81;100.00
9764;BME280;4921;43.214;27.936;2023-04-01T12:21:17;99655.22;;;16.78;100.00
9764;BME280;4921;43.214;27.936;2023-04-01T12:24:06;99650.44;;;16.89;100.00
9764;BME280;4921;43.214;27.936;2023-04-01T12:26:58;99650.81;;;16.86;100.00
9764;BME280;4921;43.214;27.936;2023-04-01T12:29:48;99646.63;;;16.76;100.00
9764;BME280;4921;43.214;27.936;2023-04-01T12:32:25;99643.59;;;16.80;100.00
9764;BME280;4921;43.214;27.936;2023-04-01T12:35:04;99652.34;;;17.09;100.00
9764;BME280;4921;43.214;27.936;2023-04-01T12:37:43;99654.66;;;17.19;100.00
9764;BME280;4921;43.214;27.936;2023-04-01T12:40:43;99660.75;;;17.13;100.00
9764;BME280;4921;43.214;27.936;2023-04-01T12:43:26;99663.78;;;17.10;100.00
9764;BME280;4921;43.214;27.936;2023-04-01T12:46:03;99657.78;;;16.72;100.00
9764;BME280;4921;43.214;27.936;2023-04-01T12:52:05;99657.72;;;16.51;100.00
9764;BME280;4921;43.214;27.936;2023-04-01T12:54:57;99646.16;;;16.29;100.00
9764;BME280;4921;43.214;27.936;2023-04-01T12:57:51;99638.97;;;16.00;100.00
9764;BME280;4921;43.214;27.936;2023-04-01T13:03:41;99649.88;;;16.06;100.00
9764;BME280;4921;43.214;27.936;2023-04-01T13:06:23;99638.63;;;16.03;100.00
9764;BME280;4921;43.214;27.936;2023-04-01T13:08:58;99625.09;;;16.13;100.00
9764;BME280;4921;43.214;27.936;2023-04-01T13:11:36;99621.53;;;16.06;100.00
9764;BME280;4921;43.214;27.936;2023-04-01T13:14:22;99612.13;;;16.18;100.00
9764;BME280;4921;43.214;27.936;2023-04-01T13:16:58;99637.75;;;16.26;100.00
9764;BME280;4921;43.214;27.936;2023-04-01T13:19:35;99626.50;;;16.24;100.00
9764;BME280;4921;43.214;27.936;2023-04-01T13:22:06;99610.19;;;16.27;100.00
9764;BME280;4921;43.214;27.936;2023-04-01T13:24:43;99612.19;;;15.95;100.00
9764;BME280;4921;43.214;27.936;2023-04-01T13:27:18;99601.94;;;15.78;100.00
9764;BME280;4921;43.214;27.936;2023-04-01T13:29:59;99601.59;;;15.95;100.00
9764;BME280;4921;43.214;27.936;2023-04-01T13:32:34;99610.44;;;16.02;100.00
9764;BME280;4921;43.214;27.936;2023-04-01T13:35:26;99619.56;;;15.85;100.00
9764;BME280;4921;43.214;27.936;2023-04-01T13:38:09;99603.94;;;15.76;100.00
9764;BME280;4921;43.214;27.936;2023-04-01T13:40:50;99597.47;;;15.93;100.00
9764;BME280;4921;43.214;27.936;2023-04-01T13:43:24;99582.97;;;15.66;100.00
9764;BME280;4921;43.214;27.936;2023-04-01T13:46:11;99597.34;;;15.72;100.00
9764;BME280;4921;43.214;27.936;2023-04-01T13:48:54;99594.97;;;15.91;100.00
9764;BME280;4921;43.214;27.936;2023-04-01T13:57:33;99588.19;;;15.74;100.00
9764;BME280;4921;43.214;27.936;2023-04-01T14:00:16;99594.50;;;15.73;100.00
9764;BME280;4921;43.214;27.936;2023-04-01T14:03:11;99596.41;;;15.65;100.00
9764;BME280;4921;43.214;27.936;2023-04-01T14:05:56;99600.09;;;15.78;100.00
9764;BME280;4921;43.214;27.936;2023-04-01T14:08:55;99603.44;;;15.72;100.00
9764;BME280;4921;43.214;27.936;2023-04-01T14:11:32;99609.97;;;15.47;100.00
9764;BME280;4921;43.214;27.936;2023-04-01T14:14:13;99589.72;;;15.54;100.00
9764;BME280;4921;43.214;27.936;2023-04-01T14:17:02;99590.38;;;15.71;100.00
9764;BME280;4921;43.214;27.936;2023-04-01T14:19:58;99591.47;;;15.76;100.00
9764;BME280;4921;43.214;27.936;2023-04-01T14:22:34;99595.06;;;15.83;100.00
9764;BME280;4921;43.214;27.936;2023-04-01T14:25:23;99602.66;;;15.72;100.00
9764;BME280;4921;43.214;27.936;2023-04-01T14:28:04;99596.03;;;15.68;100.00
9764;BME280;4921;43.214;27.936;2023-04-01T14:30:42;99590.31;;;15.79;100.00
9764;BME280;4921;43.214;27.936;2023-04-01T14:33:25;99588.56;;;15.71;100.00
9764;BME280;4921;43.214;27.936;2023-04-01T14:36:12;99573.44;;;15.57;100.00
9764;BME280;4921;43.214;27.936;2023-04-01T14:38:54;99575.84;;;15.67;100.00
9764;BME280;4921;43.214;27.936;2023-04-01T14:41:39;99588.47;;;15.79;100.00
9764;BME280;4921;43.214;27.936;2023-04-01T14:44:22;99584.09;;;15.72;100.00
9764;BME280;4921;43.214;27.936;2023-04-01T14:47:08;99584.69;;;15.59;100.00
9764;BME280;4921;43.214;27.936;2023-04-01T14:49:42;99565.13;;;15.46;100.00
9764;BME280;4921;43.214;27.936;2023-04-01T14:52:15;99571.44;;;15.59;100.00
9764;BME280;4921;43.214;27.936;2023-04-01T14:54:44;99566.44;;;15.42;100.00
9764;BME280;4921;43.214;27.936;2023-04-01T14:57:14;99548.38;;;15.22;100.00
9764;BME280;4921;43.214;27.936;2023-04-01T14:59:48;99545.72;;;15.22;100.00
9764;BME280;4921;43.214;27.936;2023-04-01T15:02:30;99543.78;;;15.16;100.00